sensor_id;sensor_type;location;lat;lon;timestamp;temperature;humidity
80426;DHT22;69766;51.476;5.704;2023-05-21T00:00:43;12.60;89.40
80426;DHT22;69766;51.476;5.704;2023-05-21T00:03:09;12.60;89.30
80426;DHT22;69766;51.476;5.704;2023-05-21T00:05:42;12.60;89.90
80426;DHT22;69766;51.476;5.704;2023-05-21T00:08:09;12.60;90.10
80426;DHT22;69766;51.476;5.704;2023-05-21T00:10:35;12.50;90.20
80426;DHT22;69766;51.476;5.704;2023-05-21T00:13:01;12.50;90.20
80426;DHT22;69766;51.476;5.704;2023-05-21T00:15:27;12.40;90.20
80426;DHT22;69766;51.476;5.704;2023-05-21T00:17:52;12.40;90.50
80426;DHT22;69766;51.476;5.704;2023-05-21T00:20:19;12.40;90.50
80426;DHT22;69766;51.476;5.704;2023-05-21T00:22:44;12.40;90.60
80426;DHT22;69766;51.476;5.704;2023-05-21T00:25:11;12.30;90.70
80426;DHT22;69766;51.476;5.704;2023-05-21T00:27:36;12.40;90.80
80426;DHT22;69766;51.476;5.704;2023-05-21T00:30:03;12.40;90.60
80426;DHT22;69766;51.476;5.704;2023-05-21T00:32:29;12.40;90.50
80426;DHT22;69766;51.476;5.704;2023-05-21T00:34:54;12.40;90.70
80426;DHT22;69766;51.476;5.704;2023-05-21T00:37:20;12.30;90.80
80426;DHT22;69766;51.476;5.704;2023-05-21T00:39:46;12.30;90.80
80426;DHT22;69766;51.476;5.704;2023-05-21T00:42:12;12.30;91.00
80426;DHT22;69766;51.476;5.704;2023-05-21T00:44:43;12.30;90.90
80426;DHT22;69766;51.476;5.704;2023-05-21T00:47:11;12.30;90.70
80426;DHT22;69766;51.476;5.704;2023-05-21T00:49:40;12.30;90.70
80426;DHT22;69766;51.476;5.704;2023-05-21T00:52:05;12.30;90.90
80426;DHT22;69766;51.476;5.704;2023-05-21T00:54:32;12.20;91.00
80426;DHT22;69766;51.476;5.704;2023-05-21T00:56:57;12.30;91.00
80426;DHT22;69766;51.476;5.704;2023-05-21T00:59:24;12.30;90.80
80426;DHT22;69766;51.476;5.704;2023-05-21T01:01:51;12.30;90.80
80426;DHT22;69766;51.476;5.704;2023-05-21T01:04:22;12.30;91.00
80426;DHT22;69766;51.476;5.704;2023-05-21T01:06:48;12.30;90.80
80426;DHT22;69766;51.476;5.704;2023-05-21T01:09:13;12.40;90.90
80426;DHT22;69766;51.476;5.704;2023-05-21T01:11:42;12.40;90.80
80426;DHT22;69766;51.476;5.704;2023-05-21T01:14:10;12.40;90.70
80426;DHT22;69766;51.476;5.704;2023-05-21T01:16:38;12.40;90.60
80426;DHT22;69766;51.476;5.704;2023-05-21T01:19:06;12.50;90.50
80426;DHT22;69766;51.476;5.704;2023-05-21T01:21:36;12.40;90.70
80426;DHT22;69766;51.476;5.704;2023-05-21T01:24:04;12.50;90.70
80426;DHT22;69766;51.476;5.704;2023-05-21T01:26:32;12.50;90.50
80426;DHT22;69766;51.476;5.704;2023-05-21T01:29:05;12.50;90.40
80426;DHT22;69766;51.476;5.704;2023-05-21T01:34:14;12.50;90.70
80426;DHT22;69766;51.476;5.704;2023-05-21T01:36:48;12.50;90.70
80426;DHT22;69766;51.476;5.704;2023-05-21T01:39:20;12.50;90.60
80426;DHT22;69766;51.476;5.704;2023-05-21T01:41:48;12.50;90.50
80426;DHT22;69766;51.476;5.704;2023-05-21T01:44:18;12.50;90.70
80426;DHT22;69766;51.476;5.704;2023-05-21T01:46:43;12.60;90.70
80426;DHT22;69766;51.476;5.704;2023-05-21T01:49:10;12.50;90.70
80426;DHT22;69766;51.476;5.704;2023-05-21T01:51:36;12.60;90.40
80426;DHT22;69766;51.476;5.704;2023-05-21T01:54:02;12.60;90.80
80426;DHT22;69766;51.476;5.704;2023-05-21T01:56:28;12.50;90.50
80426;DHT22;69766;51.476;5.704;2023-05-21T01:58:55;12.50;90.80
80426;DHT22;69766;51.476;5.704;2023-05-21T02:01:24;12.60;90.70
80426;DHT22;69766;51.476;5.704;2023-05-21T02:03:51;12.70;90.80
80426;DHT22;69766;51.476;5.704;2023-05-21T02:06:16;12.60;90.70
80426;DHT22;69766;51.476;5.704;2023-05-21T02:08:42;12.70;90.70
80426;DHT22;69766;51.476;5.704;2023-05-21T02:11:09;12.70;90.50
80426;DHT22;69766;51.476;5.704;2023-05-21T02:13:35;12.70;90.70
80426;DHT22;69766;51.476;5.704;2023-05-21T02:16:07;12.70;90.70
80426;DHT22;69766;51.476;5.704;2023-05-21T02:18:37;12.70;90.60
80426;DHT22;69766;51.476;5.704;2023-05-21T02:21:02;12.70;90.80
80426;DHT22;69766;51.476;5.704;2023-05-21T02:23:28;12.70;90.90
80426;DHT22;69766;51.476;5.704;2023-05-21T02:25:54;12.70;90.80
80426;DHT22;69766;51.476;5.704;2023-05-21T02:28:19;12.70;90.70
80426;DHT22;69766;51.476;5.704;2023-05-21T02:30:45;12.70;90.90
80426;DHT22;69766;51.476;5.704;2023-05-21T02:33:11;12.70;90.70
80426;DHT22;69766;51.476;5.704;2023-05-21T02:35:38;12.70;90.90
80426;DHT22;69766;51.476;5.704;2023-05-21T02:38:04;12.60;91.10
80426;DHT22;69766;51.476;5.704;2023-05-21T02:40:30;12.60;91.00
80426;DHT22;69766;51.476;5.704;2023-05-21T02:42:57;12.60;91.10
80426;DHT22;69766;51.476;5.704;2023-05-21T02:45:23;12.50;91.30
80426;DHT22;69766;51.476;5.704;2023-05-21T02:47:48;12.50;91.50
80426;DHT22;69766;51.476;5.704;2023-05-21T02:50:14;12.40;91.70
80426;DHT22;69766;51.476;5.704;2023-05-21T02:52:40;12.40;91.70
80426;DHT22;69766;51.476;5.704;2023-05-21T02:55:06;12.40;91.60
80426;DHT22;69766;51.476;5.704;2023-05-21T02:57:32;12.40;91.80
80426;DHT22;69766;51.476;5.704;2023-05-21T02:59:58;12.30;91.90
80426;DHT22;69766;51.476;5.704;2023-05-21T03:02:26;12.30;91.80
80426;DHT22;69766;51.476;5.704;2023-05-21T03:04:51;12.30;92.00
80426;DHT22;69766;51.476;5.704;2023-05-21T03:07:17;12.30;92.20
80426;DHT22;69766;51.476;5.704;2023-05-21T03:09:44;12.30;92.10
80426;DHT22;69766;51.476;5.704;2023-05-21T03:12:10;12.30;92.20
80426;DHT22;69766;51.476;5.704;2023-05-21T03:14:36;12.30;92.20
80426;DHT22;69766;51.476;5.704;2023-05-21T03:17:04;12.30;92.30
80426;DHT22;69766;51.476;5.704;2023-05-21T03:19:31;12.30;92.20
80426;DHT22;69766;51.476;5.704;2023-05-21T03:21:59;12.20;92.40
80426;DHT22;69766;51.476;5.704;2023-05-21T03:24:26;12.20;92.40
80426;DHT22;69766;51.476;5.704;2023-05-21T03:26:53;12.20;92.40
80426;DHT22;69766;51.476;5.704;2023-05-21T03:29:19;12.20;92.50
80426;DHT22;69766;51.476;5.704;2023-05-21T03:31:45;12.20;92.50
80426;DHT22;69766;51.476;5.704;2023-05-21T03:34:10;12.20;92.50
80426;DHT22;69766;51.476;5.704;2023-05-21T03:36:36;12.20;92.60
80426;DHT22;69766;51.476;5.704;2023-05-21T03:39:02;12.20;92.40
80426;DHT22;69766;51.476;5.704;2023-05-21T03:41:28;12.20;92.50
80426;DHT22;69766;51.476;5.704;2023-05-21T03:43:54;12.30;92.60
80426;DHT22;69766;51.476;5.704;2023-05-21T03:46:20;12.30;92.50
80426;DHT22;69766;51.476;5.704;2023-05-21T03:48:45;12.30;92.60
80426;DHT22;69766;51.476;5.704;2023-05-21T03:51:11;12.20;92.70
80426;DHT22;69766;51.476;5.704;2023-05-21T03:53:37;12.30;92.60
80426;DHT22;69766;51.476;5.704;2023-05-21T03:56:03;12.20;92.70
80426;DHT22;69766;51.476;5.704;2023-05-21T03:58:29;12.20;93.00
80426;DHT22;69766;51.476;5.704;2023-05-21T04:00:55;12.20;92.90
80426;DHT22;69766;51.476;5.704;2023-05-21T04:03:21;12.20;92.90
80426;DHT22;69766;51.476;5.704;2023-05-21T04:05:46;12.20;92.90
80426;DHT22;69766;51.476;5.704;2023-05-21T04:08:13;12.20;92.90
80426;DHT22;69766;51.476;5.704;2023-05-21T04:10:39;12.20;93.00
80426;DHT22;69766;51.476;5.704;2023-05-21T04:13:05;12.20;92.90
80426;DHT22;69766;51.476;5.704;2023-05-21T04:15:31;12.30;92.80
80426;DHT22;69766;51.476;5.704;2023-05-21T04:17:58;12.30;92.70
80426;DHT22;69766;51.476;5.704;2023-05-21T04:20:24;12.30;92.70
80426;DHT22;69766;51.476;5.704;2023-05-21T04:22:50;12.40;92.80
80426;DHT22;69766;51.476;5.704;2023-05-21T04:25:16;12.40;92.50
80426;DHT22;69766;51.476;5.704;2023-05-21T04:27:42;12.40;92.60
80426;DHT22;69766;51.476;5.704;2023-05-21T04:30:11;12.40;92.70
80426;DHT22;69766;51.476;5.704;2023-05-21T04:32:38;12.50;92.50
80426;DHT22;69766;51.476;5.704;2023-05-21T04:35:03;12.50;92.30
80426;DHT22;69766;51.476;5.704;2023-05-21T04:37:29;12.50;92.40
80426;DHT22;69766;51.476;5.704;2023-05-21T04:39:59;12.60;92.30
80426;DHT22;69766;51.476;5.704;2023-05-21T04:42:28;12.60;92.30
80426;DHT22;69766;51.476;5.704;2023-05-21T04:44:54;12.60;92.30
80426;DHT22;69766;51.476;5.704;2023-05-21T04:47:20;12.60;92.50
80426;DHT22;69766;51.476;5.704;2023-05-21T04:49:46;12.60;92.30
80426;DHT22;69766;51.476;5.704;2023-05-21T04:52:12;12.60;92.40
80426;DHT22;69766;51.476;5.704;2023-05-21T04:54:38;12.70;92.20
80426;DHT22;69766;51.476;5.704;2023-05-21T04:57:06;12.80;91.80
80426;DHT22;69766;51.476;5.704;2023-05-21T04:59:32;12.90;91.60
80426;DHT22;69766;51.476;5.704;2023-05-21T05:01:58;12.90;91.80
80426;DHT22;69766;51.476;5.704;2023-05-21T05:04:24;12.90;91.60
80426;DHT22;69766;51.476;5.704;2023-05-21T05:06:50;12.90;92.00
80426;DHT22;69766;51.476;5.704;2023-05-21T05:09:17;13.00;91.70
80426;DHT22;69766;51.476;5.704;2023-05-21T05:11:43;13.00;91.60
80426;DHT22;69766;51.476;5.704;2023-05-21T05:14:08;13.00;91.50
80426;DHT22;69766;51.476;5.704;2023-05-21T05:16:34;13.10;91.70
80426;DHT22;69766;51.476;5.704;2023-05-21T05:19:00;13.10;91.50
80426;DHT22;69766;51.476;5.704;2023-05-21T05:21:26;13.20;91.60
80426;DHT22;69766;51.476;5.704;2023-05-21T05:23:52;13.20;91.50
80426;DHT22;69766;51.476;5.704;2023-05-21T05:26:18;13.30;91.30
80426;DHT22;69766;51.476;5.704;2023-05-21T05:28:44;13.40;91.10
80426;DHT22;69766;51.476;5.704;2023-05-21T05:31:10;13.50;91.20
80426;DHT22;69766;51.476;5.704;2023-05-21T05:33:36;13.50;91.40
80426;DHT22;69766;51.476;5.704;2023-05-21T05:36:02;13.60;90.60
80426;DHT22;69766;51.476;5.704;2023-05-21T05:38:27;13.60;90.70
80426;DHT22;69766;51.476;5.704;2023-05-21T05:40:53;13.70;90.90
80426;DHT22;69766;51.476;5.704;2023-05-21T05:43:19;13.80;90.40
80426;DHT22;69766;51.476;5.704;2023-05-21T05:45:44;13.90;90.70
80426;DHT22;69766;51.476;5.704;2023-05-21T05:48:10;13.90;90.30
80426;DHT22;69766;51.476;5.704;2023-05-21T05:50:36;14.00;90.00
80426;DHT22;69766;51.476;5.704;2023-05-21T05:53:02;13.90;90.10
80426;DHT22;69766;51.476;5.704;2023-05-21T05:55:27;14.10;89.90
80426;DHT22;69766;51.476;5.704;2023-05-21T05:57:53;14.20;89.60
80426;DHT22;69766;51.476;5.704;2023-05-21T06:00:19;14.30;89.10
80426;DHT22;69766;51.476;5.704;2023-05-21T06:02:44;14.40;88.70
80426;DHT22;69766;51.476;5.704;2023-05-21T06:05:10;14.40;89.90
80426;DHT22;69766;51.476;5.704;2023-05-21T06:07:37;14.30;89.90
80426;DHT22;69766;51.476;5.704;2023-05-21T06:10:06;14.50;88.90
80426;DHT22;69766;51.476;5.704;2023-05-21T06:12:32;14.50;88.70
80426;DHT22;69766;51.476;5.704;2023-05-21T06:14:58;14.70;88.30
80426;DHT22;69766;51.476;5.704;2023-05-21T06:17:24;14.70;87.90
80426;DHT22;69766;51.476;5.704;2023-05-21T06:19:50;14.90;87.60
80426;DHT22;69766;51.476;5.704;2023-05-21T06:22:15;15.00;87.50
80426;DHT22;69766;51.476;5.704;2023-05-21T06:24:41;14.80;86.30
80426;DHT22;69766;51.476;5.704;2023-05-21T06:27:07;15.00;86.00
80426;DHT22;69766;51.476;5.704;2023-05-21T06:29:32;14.80;87.10
80426;DHT22;69766;51.476;5.704;2023-05-21T06:31:58;15.00;87.50
80426;DHT22;69766;51.476;5.704;2023-05-21T06:34:24;15.10;87.30
80426;DHT22;69766;51.476;5.704;2023-05-21T06:36:50;15.00;86.60
80426;DHT22;69766;51.476;5.704;2023-05-21T06:39:16;14.90;86.40
80426;DHT22;69766;51.476;5.704;2023-05-21T06:41:41;15.00;86.80
80426;DHT22;69766;51.476;5.704;2023-05-21T06:44:07;15.00;86.10
80426;DHT22;69766;51.476;5.704;2023-05-21T06:46:33;15.30;85.90
80426;DHT22;69766;51.476;5.704;2023-05-21T06:48:59;15.40;86.10
80426;DHT22;69766;51.476;5.704;2023-05-21T06:51:25;15.30;84.10
80426;DHT22;69766;51.476;5.704;2023-05-21T06:53:51;15.40;84.90
80426;DHT22;69766;51.476;5.704;2023-05-21T06:56:17;15.50;84.40
80426;DHT22;69766;51.476;5.704;2023-05-21T06:58:43;15.20;86.20
80426;DHT22;69766;51.476;5.704;2023-05-21T07:01:09;15.50;84.10
80426;DHT22;69766;51.476;5.704;2023-05-21T07:03:36;15.60;83.90
80426;DHT22;69766;51.476;5.704;2023-05-21T07:06:02;15.60;85.30
80426;DHT22;69766;51.476;5.704;2023-05-21T07:08:28;16.10;83.10
80426;DHT22;69766;51.476;5.704;2023-05-21T07:10:54;16.20;81.50
80426;DHT22;69766;51.476;5.704;2023-05-21T07:13:20;16.10;82.50
80426;DHT22;69766;51.476;5.704;2023-05-21T07:15:46;16.20;81.20
80426;DHT22;69766;51.476;5.704;2023-05-21T07:18:12;16.90;79.30
80426;DHT22;69766;51.476;5.704;2023-05-21T07:20:38;17.30;77.60
80426;DHT22;69766;51.476;5.704;2023-05-21T07:23:04;17.60;77.20
80426;DHT22;69766;51.476;5.704;2023-05-21T07:25:29;18.00;74.80
80426;DHT22;69766;51.476;5.704;2023-05-21T07:27:55;18.10;73.30
80426;DHT22;69766;51.476;5.704;2023-05-21T07:30:21;18.60;73.40
80426;DHT22;69766;51.476;5.704;2023-05-21T07:32:46;18.90;71.10
80426;DHT22;69766;51.476;5.704;2023-05-21T07:35:12;18.80;71.00
80426;DHT22;69766;51.476;5.704;2023-05-21T07:37:38;18.80;71.80
80426;DHT22;69766;51.476;5.704;2023-05-21T07:40:04;19.30;68.60
80426;DHT22;69766;51.476;5.704;2023-05-21T07:42:31;20.00;69.10
80426;DHT22;69766;51.476;5.704;2023-05-21T07:44:56;19.90;66.60
80426;DHT22;69766;51.476;5.704;2023-05-21T07:47:22;20.20;67.20
80426;DHT22;69766;51.476;5.704;2023-05-21T07:49:48;19.80;67.70
80426;DHT22;69766;51.476;5.704;2023-05-21T07:52:14;20.10;65.90
80426;DHT22;69766;51.476;5.704;2023-05-21T07:54:39;20.10;66.80
80426;DHT22;69766;51.476;5.704;2023-05-21T07:57:05;20.30;65.60
80426;DHT22;69766;51.476;5.704;2023-05-21T07:59:31;20.00;66.70
80426;DHT22;69766;51.476;5.704;2023-05-21T08:01:57;21.00;66.10
80426;DHT22;69766;51.476;5.704;2023-05-21T08:04:23;21.50;62.40
80426;DHT22;69766;51.476;5.704;2023-05-21T08:06:50;21.00;63.10
80426;DHT22;69766;51.476;5.704;2023-05-21T08:09:15;21.60;62.50
80426;DHT22;69766;51.476;5.704;2023-05-21T08:11:42;22.00;60.00
80426;DHT22;69766;51.476;5.704;2023-05-21T08:14:08;21.70;61.30
80426;DHT22;69766;51.476;5.704;2023-05-21T08:16:34;22.40;58.80
80426;DHT22;69766;51.476;5.704;2023-05-21T08:19:01;22.60;59.50
80426;DHT22;69766;51.476;5.704;2023-05-21T08:21:26;22.10;60.70
80426;DHT22;69766;51.476;5.704;2023-05-21T08:23:52;21.00;61.50
80426;DHT22;69766;51.476;5.704;2023-05-21T08:26:18;21.60;62.20
80426;DHT22;69766;51.476;5.704;2023-05-21T08:28:44;23.00;60.00
80426;DHT22;69766;51.476;5.704;2023-05-21T08:31:09;22.50;59.40
80426;DHT22;69766;51.476;5.704;2023-05-21T08:33:35;22.50;59.10
80426;DHT22;69766;51.476;5.704;2023-05-21T08:36:07;22.50;60.90
80426;DHT22;69766;51.476;5.704;2023-05-21T08:38:33;22.70;58.10
80426;DHT22;69766;51.476;5.704;2023-05-21T08:40:59;22.30;59.30
80426;DHT22;69766;51.476;5.704;2023-05-21T08:43:28;22.40;60.60
80426;DHT22;69766;51.476;5.704;2023-05-21T08:45:55;23.20;59.70
80426;DHT22;69766;51.476;5.704;2023-05-21T08:48:24;23.70;57.30
80426;DHT22;69766;51.476;5.704;2023-05-21T08:50:53;23.80;55.50
80426;DHT22;69766;51.476;5.704;2023-05-21T08:53:23;23.50;58.10
80426;DHT22;69766;51.476;5.704;2023-05-21T08:55:50;24.20;55.60
80426;DHT22;69766;51.476;5.704;2023-05-21T08:58:17;23.80;56.50
80426;DHT22;69766;51.476;5.704;2023-05-21T09:00:43;24.80;53.80
80426;DHT22;69766;51.476;5.704;2023-05-21T09:03:09;23.80;55.00
80426;DHT22;69766;51.476;5.704;2023-05-21T09:05:44;25.00;53.90
80426;DHT22;69766;51.476;5.704;2023-05-21T09:08:18;23.40;57.40
80426;DHT22;69766;51.476;5.704;2023-05-21T09:10:49;23.40;55.90
80426;DHT22;69766;51.476;5.704;2023-05-21T09:13:18;22.20;61.00
80426;DHT22;69766;51.476;5.704;2023-05-21T09:15:45;22.40;61.10
80426;DHT22;69766;51.476;5.704;2023-05-21T09:18:11;23.10;58.20
80426;DHT22;69766;51.476;5.704;2023-05-21T09:20:37;23.30;58.70
80426;DHT22;69766;51.476;5.704;2023-05-21T09:23:04;23.10;59.20
80426;DHT22;69766;51.476;5.704;2023-05-21T09:25:31;23.50;57.20
80426;DHT22;69766;51.476;5.704;2023-05-21T09:27:58;24.20;57.50
80426;DHT22;69766;51.476;5.704;2023-05-21T09:30:24;24.30;54.70
80426;DHT22;69766;51.476;5.704;2023-05-21T09:32:56;23.30;57.30
80426;DHT22;69766;51.476;5.704;2023-05-21T09:35:22;23.40;56.90
80426;DHT22;69766;51.476;5.704;2023-05-21T09:37:49;24.50;55.90
80426;DHT22;69766;51.476;5.704;2023-05-21T09:40:16;24.30;55.60
80426;DHT22;69766;51.476;5.704;2023-05-21T09:42:49;24.50;56.00
80426;DHT22;69766;51.476;5.704;2023-05-21T09:45:23;24.00;55.00
80426;DHT22;69766;51.476;5.704;2023-05-21T09:47:50;24.20;57.60
80426;DHT22;69766;51.476;5.704;2023-05-21T09:50:22;23.30;59.20
80426;DHT22;69766;51.476;5.704;2023-05-21T09:52:49;24.20;55.00
80426;DHT22;69766;51.476;5.704;2023-05-21T09:55:17;24.40;55.20
80426;DHT22;69766;51.476;5.704;2023-05-21T09:57:45;24.50;54.70
80426;DHT22;69766;51.476;5.704;2023-05-21T10:00:22;24.00;55.40
80426;DHT22;69766;51.476;5.704;2023-05-21T10:02:49;23.70;56.70
80426;DHT22;69766;51.476;5.704;2023-05-21T10:05:18;24.50;57.10
80426;DHT22;69766;51.476;5.704;2023-05-21T10:07:48;24.90;53.50
80426;DHT22;69766;51.476;5.704;2023-05-21T10:10:16;25.10;55.30
80426;DHT22;69766;51.476;5.704;2023-05-21T10:12:45;26.20;52.10
80426;DHT22;69766;51.476;5.704;2023-05-21T10:15:13;25.80;53.30
80426;DHT22;69766;51.476;5.704;2023-05-21T10:17:42;25.00;54.20
80426;DHT22;69766;51.476;5.704;2023-05-21T10:20:12;25.40;54.70
80426;DHT22;69766;51.476;5.704;2023-05-21T10:22:38;25.30;54.40
80426;DHT22;69766;51.476;5.704;2023-05-21T10:25:08;26.20;52.00
80426;DHT22;69766;51.476;5.704;2023-05-21T10:27:35;26.20;53.10
80426;DHT22;69766;51.476;5.704;2023-05-21T10:30:03;26.50;52.70
80426;DHT22;69766;51.476;5.704;2023-05-21T10:32:31;25.60;53.20
80426;DHT22;69766;51.476;5.704;2023-05-21T10:34:57;25.70;53.00
80426;DHT22;69766;51.476;5.704;2023-05-21T10:37:24;26.20;50.80
80426;DHT22;69766;51.476;5.704;2023-05-21T10:39:53;26.10;52.10
80426;DHT22;69766;51.476;5.704;2023-05-21T10:45:25;26.80;50.80
80426;DHT22;69766;51.476;5.704;2023-05-21T10:53:59;26.70;51.80
80426;DHT22;69766;51.476;5.704;2023-05-21T10:56:35;26.90;48.80
80426;DHT22;69766;51.476;5.704;2023-05-21T11:01:37;27.00;51.70
80426;DHT22;69766;51.476;5.704;2023-05-21T11:04:04;26.70;52.10
80426;DHT22;69766;51.476;5.704;2023-05-21T11:06:32;26.20;51.90
80426;DHT22;69766;51.476;5.704;2023-05-21T11:09:13;27.40;51.10
80426;DHT22;69766;51.476;5.704;2023-05-21T11:11:44;27.90;48.00
80426;DHT22;69766;51.476;5.704;2023-05-21T11:14:30;27.80;47.60
80426;DHT22;69766;51.476;5.704;2023-05-21T11:19:37;28.10;49.00
80426;DHT22;69766;51.476;5.704;2023-05-21T11:22:26;28.50;47.20
80426;DHT22;69766;51.476;5.704;2023-05-21T11:24:53;30.20;44.70
80426;DHT22;69766;51.476;5.704;2023-05-21T11:27:39;29.90;47.00
80426;DHT22;69766;51.476;5.704;2023-05-21T11:30:17;30.20;45.10
80426;DHT22;69766;51.476;5.704;2023-05-21T11:38:10;30.90;44.20
80426;DHT22;69766;51.476;5.704;2023-05-21T11:40:36;29.90;46.50
80426;DHT22;69766;51.476;5.704;2023-05-21T11:43:02;29.30;45.40
80426;DHT22;69766;51.476;5.704;2023-05-21T11:45:31;29.40;46.00
80426;DHT22;69766;51.476;5.704;2023-05-21T11:48:05;29.20;46.90
80426;DHT22;69766;51.476;5.704;2023-05-21T11:50:31;28.20;48.50
80426;DHT22;69766;51.476;5.704;2023-05-21T11:52:58;28.80;47.00
80426;DHT22;69766;51.476;5.704;2023-05-21T11:55:24;27.10;50.40
80426;DHT22;69766;51.476;5.704;2023-05-21T11:57:52;27.40;49.30
80426;DHT22;69766;51.476;5.704;2023-05-21T12:00:18;27.50;49.30
80426;DHT22;69766;51.476;5.704;2023-05-21T12:02:45;28.30;49.10
80426;DHT22;69766;51.476;5.704;2023-05-21T12:05:11;29.70;47.60
80426;DHT22;69766;51.476;5.704;2023-05-21T12:07:40;28.30;49.50
80426;DHT22;69766;51.476;5.704;2023-05-21T12:10:07;28.10;48.60
80426;DHT22;69766;51.476;5.704;2023-05-21T12:12:33;29.50;45.50
80426;DHT22;69766;51.476;5.704;2023-05-21T12:15:00;29.60;46.20
80426;DHT22;69766;51.476;5.704;2023-05-21T12:17:27;29.00;49.40
80426;DHT22;69766;51.476;5.704;2023-05-21T12:19:54;29.20;48.00
80426;DHT22;69766;51.476;5.704;2023-05-21T12:22:22;29.60;47.00
80426;DHT22;69766;51.476;5.704;2023-05-21T12:24:49;29.30;46.80
80426;DHT22;69766;51.476;5.704;2023-05-21T12:27:16;30.60;45.00
80426;DHT22;69766;51.476;5.704;2023-05-21T12:29:57;30.70;44.50
80426;DHT22;69766;51.476;5.704;2023-05-21T12:32:26;29.50;46.40
80426;DHT22;69766;51.476;5.704;2023-05-21T12:35:23;29.70;46.40
80426;DHT22;69766;51.476;5.704;2023-05-21T12:37:48;29.40;47.60
80426;DHT22;69766;51.476;5.704;2023-05-21T12:40:18;28.60;48.90
80426;DHT22;69766;51.476;5.704;2023-05-21T12:42:46;29.20;46.30
80426;DHT22;69766;51.476;5.704;2023-05-21T12:45:13;29.50;47.70
80426;DHT22;69766;51.476;5.704;2023-05-21T12:47:39;28.30;48.90
80426;DHT22;69766;51.476;5.704;2023-05-21T12:50:15;28.00;49.20
80426;DHT22;69766;51.476;5.704;2023-05-21T12:52:44;29.90;45.50
80426;DHT22;69766;51.476;5.704;2023-05-21T12:55:16;28.90;47.20
80426;DHT22;69766;51.476;5.704;2023-05-21T12:57:41;29.90;47.20
80426;DHT22;69766;51.476;5.704;2023-05-21T13:00:08;29.90;45.80
80426;DHT22;69766;51.476;5.704;2023-05-21T13:02:40;29.00;46.20
80426;DHT22;69766;51.476;5.704;2023-05-21T13:05:07;28.90;47.90
80426;DHT22;69766;51.476;5.704;2023-05-21T13:07:35;28.60;49.50
80426;DHT22;69766;51.476;5.704;2023-05-21T13:10:03;28.90;46.70
80426;DHT22;69766;51.476;5.704;2023-05-21T13:12:29;27.90;49.50
80426;DHT22;69766;51.476;5.704;2023-05-21T13:14:57;28.30;48.50
80426;DHT22;69766;51.476;5.704;2023-05-21T13:17:24;28.90;47.40
80426;DHT22;69766;51.476;5.704;2023-05-21T13:20:07;29.50;47.10
80426;DHT22;69766;51.476;5.704;2023-05-21T13:22:34;29.30;47.50
80426;DHT22;69766;51.476;5.704;2023-05-21T13:25:04;29.50;45.80
80426;DHT22;69766;51.476;5.704;2023-05-21T13:27:31;29.80;46.30
80426;DHT22;69766;51.476;5.704;2023-05-21T13:29:57;30.50;44.50
80426;DHT22;69766;51.476;5.704;2023-05-21T13:32:25;30.80;46.20
80426;DHT22;69766;51.476;5.704;2023-05-21T13:34:51;28.50;50.70
80426;DHT22;69766;51.476;5.704;2023-05-21T13:37:17;28.60;49.40
80426;DHT22;69766;51.476;5.704;2023-05-21T13:39:44;28.50;49.60
80426;DHT22;69766;51.476;5.704;2023-05-21T13:42:10;28.10;48.30
80426;DHT22;69766;51.476;5.704;2023-05-21T13:44:37;27.90;49.50
80426;DHT22;69766;51.476;5.704;2023-05-21T13:47:03;27.70;49.80
80426;DHT22;69766;51.476;5.704;2023-05-21T13:49:29;28.80;48.20
80426;DHT22;69766;51.476;5.704;2023-05-21T13:51:55;28.90;49.10
80426;DHT22;69766;51.476;5.704;2023-05-21T13:54:23;29.30;46.70
80426;DHT22;69766;51.476;5.704;2023-05-21T13:56:49;30.10;45.00
80426;DHT22;69766;51.476;5.704;2023-05-21T13:59:15;29.10;47.20
80426;DHT22;69766;51.476;5.704;2023-05-21T14:01:41;29.10;47.60
80426;DHT22;69766;51.476;5.704;2023-05-21T14:04:08;28.10;49.80
80426;DHT22;69766;51.476;5.704;2023-05-21T14:06:35;27.80;52.20
80426;DHT22;69766;51.476;5.704;2023-05-21T14:09:00;27.10;52.00
80426;DHT22;69766;51.476;5.704;2023-05-21T14:11:30;26.70;51.70
80426;DHT22;69766;51.476;5.704;2023-05-21T14:13:59;27.80;52.00
80426;DHT22;69766;51.476;5.704;2023-05-21T14:16:25;28.00;49.30
80426;DHT22;69766;51.476;5.704;2023-05-21T14:18:52;27.00;52.60
80426;DHT22;69766;51.476;5.704;2023-05-21T14:21:18;27.10;54.10
80426;DHT22;69766;51.476;5.704;2023-05-21T14:23:44;27.20;51.00
80426;DHT22;69766;51.476;5.704;2023-05-21T14:26:10;28.10;51.50
80426;DHT22;69766;51.476;5.704;2023-05-21T14:28:36;28.70;48.70
80426;DHT22;69766;51.476;5.704;2023-05-21T14:31:02;28.70;50.30
80426;DHT22;69766;51.476;5.704;2023-05-21T14:33:30;27.80;51.10
80426;DHT22;69766;51.476;5.704;2023-05-21T14:35:55;27.90;52.10
80426;DHT22;69766;51.476;5.704;2023-05-21T14:38:21;27.90;50.40
80426;DHT22;69766;51.476;5.704;2023-05-21T14:40:47;28.10;50.90
80426;DHT22;69766;51.476;5.704;2023-05-21T14:43:13;27.70;50.60
80426;DHT22;69766;51.476;5.704;2023-05-21T14:45:38;28.00;50.40
80426;DHT22;69766;51.476;5.704;2023-05-21T14:48:04;27.70;51.00
80426;DHT22;69766;51.476;5.704;2023-05-21T14:50:36;26.90;52.10
80426;DHT22;69766;51.476;5.704;2023-05-21T14:53:09;26.50;54.00
80426;DHT22;69766;51.476;5.704;2023-05-21T14:55:36;26.80;54.50
80426;DHT22;69766;51.476;5.704;2023-05-21T14:58:05;27.20;51.40
80426;DHT22;69766;51.476;5.704;2023-05-21T15:00:32;27.00;53.90
80426;DHT22;69766;51.476;5.704;2023-05-21T15:02:58;27.00;52.80
80426;DHT22;69766;51.476;5.704;2023-05-21T15:05:25;27.50;54.40
80426;DHT22;69766;51.476;5.704;2023-05-21T15:07:52;27.90;51.90
80426;DHT22;69766;51.476;5.704;2023-05-21T15:10:18;27.00;54.60
80426;DHT22;69766;51.476;5.704;2023-05-21T15:12:43;26.20;55.90
80426;DHT22;69766;51.476;5.704;2023-05-21T15:15:10;25.80;56.50
80426;DHT22;69766;51.476;5.704;2023-05-21T15:17:36;26.30;54.70
80426;DHT22;69766;51.476;5.704;2023-05-21T15:20:03;26.00;56.50
80426;DHT22;69766;51.476;5.704;2023-05-21T15:22:33;26.40;55.80
80426;DHT22;69766;51.476;5.704;2023-05-21T15:24:59;27.10;53.60
80426;DHT22;69766;51.476;5.704;2023-05-21T15:27:25;27.20;53.70
80426;DHT22;69766;51.476;5.704;2023-05-21T15:29:51;27.20;53.40
80426;DHT22;69766;51.476;5.704;2023-05-21T15:32:17;26.90;55.70
80426;DHT22;69766;51.476;5.704;2023-05-21T15:34:47;27.20;52.60
80426;DHT22;69766;51.476;5.704;2023-05-21T15:37:13;26.60;54.80
80426;DHT22;69766;51.476;5.704;2023-05-21T15:39:41;26.20;55.00
80426;DHT22;69766;51.476;5.704;2023-05-21T15:42:07;26.50;55.00
80426;DHT22;69766;51.476;5.704;2023-05-21T15:44:32;26.20;54.20
80426;DHT22;69766;51.476;5.704;2023-05-21T15:46:58;25.90;56.10
80426;DHT22;69766;51.476;5.704;2023-05-21T15:49:24;25.80;57.00
80426;DHT22;69766;51.476;5.704;2023-05-21T15:51:49;25.70;56.90